createdAt,value
2022-12-11T00:01:01.408Z,95370.56
2022-12-11T00:02:13.131Z,95368.91
2022-12-11T00:03:18.904Z,95368.91
2022-12-11T00:04:25.481Z,95363.03
2022-12-11T00:05:28.629Z,95368.84
2022-12-11T00:06:37.456Z,95368.81
2022-12-11T00:07:43.943Z,95368.13
2022-12-11T00:08:53.999Z,95374.06
2022-12-11T00:09:57.436Z,95378.28
2022-12-11T00:11:03.513Z,95369.81
2022-12-11T00:12:09.655Z,95375.69
2022-12-11T00:13:17.830Z,95370.66
2022-12-11T00:14:21.107Z,95369.78
2022-12-11T00:15:26.969Z,95376.56
2022-12-11T00:16:30.712Z,95364.78
2022-12-11T00:17:39.867Z,95373.28
2022-12-11T00:18:46.596Z,95369.03
2022-12-11T00:19:52.491Z,95365.63
2022-12-11T00:20:56.089Z,95362.94
2022-12-11T00:22:02.189Z,95362.16
2022-12-11T00:23:08.007Z,95354.66
2022-12-11T00:24:14.285Z,95349.59
2022-12-11T00:25:17.436Z,95357.22
2022-12-11T00:26:23.179Z,95363.09
2022-12-11T00:27:28.654Z,95356.38
2022-12-11T00:28:37.459Z,95358.94
2022-12-11T00:29:41.259Z,95354.63
2022-12-11T00:30:47.204Z,95355.47
2022-12-11T00:31:50.547Z,95358.88
2022-12-11T00:33:01.961Z,95358.00
2022-12-11T00:34:05.422Z,95358.00
2022-12-11T00:35:13.962Z,95352.91
2022-12-11T00:36:19.362Z,95357.09
2022-12-11T00:37:25.374Z,95351.06
2022-12-11T00:38:29.043Z,95352.78
2022-12-11T00:39:34.989Z,95356.25
2022-12-11T00:40:38.548Z,95342.66
2022-12-11T00:41:44.289Z,95352.84
2022-12-11T00:42:47.496Z,95356.22
2022-12-11T00:43:58.064Z,95355.38
2022-12-11T00:45:03.345Z,95358.78
2022-12-11T00:46:08.813Z,95351.19
2022-12-11T00:47:13.847Z,95352.88
2022-12-11T00:48:18.878Z,95346.06
2022-12-11T00:49:23.714Z,95352.75
2022-12-11T00:50:26.070Z,95343.47
2022-12-11T00:51:31.081Z,95347.72
2022-12-11T00:52:33.589Z,95340.91
2022-12-11T00:53:38.402Z,95340.88
2022-12-11T00:54:40.815Z,95345.94
2022-12-11T00:55:46.452Z,95345.03
2022-12-11T00:56:51.424Z,95346.78
2022-12-11T00:57:54.041Z,95342.59
2022-12-11T00:58:59.542Z,95344.28
2022-12-11T01:00:01.846Z,95342.63
2022-12-11T01:01:09.995Z,95339.13
2022-12-11T01:02:12.615Z,95347.63
2022-12-11T01:03:20.667Z,95360.38
2022-12-11T01:04:23.438Z,95346.88
2022-12-11T01:05:28.472Z,95347.66
2022-12-11T01:06:30.682Z,95348.53
2022-12-11T01:07:35.604Z,95349.38
2022-12-11T01:08:38.842Z,95356.16
2022-12-11T01:09:56.341Z,95344.28
2022-12-11T01:11:05.498Z,95353.56
2022-12-11T01:12:07.821Z,95355.25
2022-12-11T01:13:14.384Z,95361.19
2022-12-11T01:14:16.685Z,95365.31
2022-12-11T01:15:23.114Z,95362.81
2022-12-11T01:16:28.019Z,95361.06
2022-12-11T01:17:30.272Z,95371.22
2022-12-11T01:18:38.068Z,95372.97
2022-12-11T01:19:40.474Z,95379.75
2022-12-11T01:20:46.434Z,95376.25
2022-12-11T01:21:48.706Z,95379.72
2022-12-11T01:22:57.990Z,95384.75
2022-12-11T01:24:00.361Z,95381.28
2022-12-11T01:25:05.793Z,95381.28
2022-12-11T01:26:09.735Z,95378.78
2022-12-11T01:27:15.042Z,95372.06
2022-12-11T01:28:17.536Z,95382.25
2022-12-11T01:29:22.392Z,95381.38
2022-12-11T01:30:26.059Z,95383.00
2022-12-11T01:31:31.250Z,95382.31
2022-12-11T01:32:34.274Z,95379.75
2022-12-11T01:33:41.979Z,95386.59
2022-12-11T01:34:44.383Z,95392.41
2022-12-11T01:35:49.233Z,95389.97
2022-12-11T01:36:53.114Z,95384.88
2022-12-11T01:37:58.062Z,95383.22
2022-12-11T01:39:00.320Z,95395.09
2022-12-11T01:40:06.066Z,95387.41
2022-12-11T01:41:09.078Z,95389.91
2022-12-11T01:42:20.019Z,95395.09
2022-12-11T01:43:22.254Z,95386.69
2022-12-11T01:44:57.046Z,95390.84
2022-12-11T01:46:02.247Z,95392.63
2022-12-11T01:47:04.597Z,95386.78
2022-12-11T01:48:13.113Z,95391.88
2022-12-11T01:49:20.690Z,95394.44
2022-12-11T01:50:26.550Z,95392.69
2022-12-11T01:51:34.412Z,95392.63
2022-12-11T01:52:37.131Z,95389.22
2022-12-11T01:53:46.405Z,95395.19
2022-12-11T01:54:49.964Z,95393.53
2022-12-11T01:55:58.297Z,95396.97
2022-12-11T01:57:07.219Z,95402.88
2022-12-11T01:58:12.321Z,95399.47
2022-12-11T01:59:20.701Z,95398.63
2022-12-11T02:00:23.097Z,95404.53
2022-12-11T02:01:34.974Z,95406.28
2022-12-11T02:02:37.412Z,95408.84
2022-12-11T02:03:42.801Z,95402.03
2022-12-11T02:04:48.711Z,95409.63
2022-12-11T02:05:53.561Z,95405.34
2022-12-11T02:06:56.412Z,95403.59
2022-12-11T02:08:03.894Z,95402.75
2022-12-11T02:09:09.776Z,95398.50
2022-12-11T02:10:15.641Z,95400.13
2022-12-11T02:11:23.640Z,95394.25
2022-12-11T02:12:35.075Z,95398.53
2022-12-11T02:13:45.218Z,95393.50
2022-12-11T02:14:57.422Z,95399.28
2022-12-11T02:16:06.366Z,95398.50
2022-12-11T02:17:18.203Z,95393.56
2022-12-11T02:18:33.560Z,95399.50
2022-12-11T02:19:52.419Z,95407.00
2022-12-11T02:21:05.760Z,95402.16
2022-12-11T02:22:13.450Z,95400.44
2022-12-11T02:23:45.965Z,95410.63
2022-12-11T02:25:03.967Z,95410.59
2022-12-11T02:26:21.999Z,95408.91
2022-12-11T02:27:30.980Z,95403.03
2022-12-11T02:28:42.723Z,95409.06
2022-12-11T02:29:51.213Z,95402.22
2022-12-11T02:31:00.550Z,95407.25
2022-12-11T02:32:06.987Z,95405.53
2022-12-11T02:33:14.274Z,95405.44
2022-12-11T02:34:23.383Z,95403.72
2022-12-11T02:35:33.134Z,95399.59
2022-12-11T02:36:40.024Z,95409.78
2022-12-11T02:37:48.111Z,95406.34
2022-12-11T02:38:53.620Z,95411.38
2022-12-11T02:40:00.022Z,95411.34
2022-12-11T02:41:07.469Z,95412.25
2022-12-11T02:42:11.579Z,95408.94
2022-12-11T02:43:20.120Z,95410.63
2022-12-11T02:44:28.440Z,95413.19
2022-12-11T02:45:35.026Z,95407.31
2022-12-11T02:46:38.315Z,95412.44
2022-12-11T02:47:44.572Z,95412.44
2022-12-11T02:48:50.301Z,95410.69
2022-12-11T02:49:56.857Z,95410.72
2022-12-11T02:51:00.455Z,95416.72
2022-12-11T02:52:08.135Z,95415.91
2022-12-11T02:53:12.930Z,95419.25
2022-12-11T02:54:21.108Z,95420.84
2022-12-11T02:55:28.998Z,95411.56
2022-12-11T02:56:36.467Z,95410.59
2022-12-11T02:57:46.547Z,95404.81
2022-12-11T02:58:58.512Z,95412.44
2022-12-11T03:00:09.161Z,95411.53
2022-12-11T03:01:11.637Z,95412.56
2022-12-11T03:02:19.537Z,95404.94
2022-12-11T03:03:22.651Z,95399.03
2022-12-11T03:04:27.698Z,95407.63
2022-12-11T03:05:32.847Z,95405.88
2022-12-11T03:06:40.136Z,95402.53
2022-12-11T03:07:47.691Z,95401.66
2022-12-11T03:08:52.107Z,95408.41
2022-12-11T03:09:57.354Z,95409.19
2022-12-11T03:10:59.809Z,95402.53
2022-12-11T03:12:05.164Z,95405.91
2022-12-11T03:13:10.133Z,95398.25
2022-12-11T03:14:13.040Z,95401.63
2022-12-11T03:15:23.392Z,95395.72
2022-12-11T03:16:34.763Z,95404.97
2022-12-11T03:17:47.365Z,95405.84
2022-12-11T03:18:59.367Z,95396.59
2022-12-11T03:20:10.377Z,95400.84
2022-12-11T03:21:19.598Z,95405.16
2022-12-11T03:22:29.203Z,95399.28
2022-12-11T03:23:41.598Z,95398.50
2022-12-11T03:24:55.289Z,95394.31
2022-12-11T03:26:03.823Z,95399.34
2022-12-11T03:27:15.926Z,95395.94
2022-12-11T03:28:23.446Z,95388.28
2022-12-11T03:29:34.845Z,95397.56
2022-12-11T03:30:42.450Z,95389.19
2022-12-11T03:32:09.410Z,95389.19
2022-12-11T03:33:29.147Z,95400.25
2022-12-11T03:34:58.033Z,95397.69
2022-12-11T03:36:12.325Z,95395.16
2022-12-11T03:39:00.655Z,95398.50
2022-12-11T03:40:12.432Z,95402.69
2022-12-11T03:41:38.069Z,95402.69
2022-12-11T03:42:49.053Z,95393.31
2022-12-11T03:44:11.883Z,95401.78
2022-12-11T03:45:54.170Z,95405.94
2022-12-11T03:49:01.353Z,95410.94
2022-12-11T03:50:27.484Z,95406.63
2022-12-11T03:51:31.899Z,95406.72
2022-12-11T03:52:43.996Z,95398.31
2022-12-11T03:53:48.637Z,95409.31
2022-12-11T03:54:53.932Z,95406.81
2022-12-11T03:55:59.258Z,95402.59
2022-12-11T03:57:07.108Z,95404.28
2022-12-11T03:58:09.396Z,95400.88
2022-12-11T03:59:14.655Z,95396.63
2022-12-11T04:00:19.196Z,95397.53
2022-12-11T04:01:24.550Z,95395.84
2022-12-11T04:02:29.532Z,95399.25
2022-12-11T04:03:34.815Z,95396.69
2022-12-11T04:04:37.637Z,95400.09
2022-12-11T04:05:42.776Z,95395.91
2022-12-11T04:06:45.091Z,95405.22
2022-12-11T04:07:50.264Z,95389.16
2022-12-11T04:08:52.606Z,95390.94
2022-12-11T04:09:57.599Z,95393.44
2022-12-11T04:11:15.023Z,95386.69
2022-12-11T04:12:19.880Z,95382.38
2022-12-11T04:13:22.124Z,95389.19
2022-12-11T04:14:39.624Z,95384.13
2022-12-11T04:15:44.546Z,95376.50
2022-12-11T04:16:47.223Z,95381.63
2022-12-11T04:18:07.089Z,95376.53
2022-12-11T04:19:25.555Z,95377.41
2022-12-11T04:20:43.211Z,95378.31
2022-12-11T04:22:00.458Z,95379.16
2022-12-11T04:23:19.630Z,95378.28
2022-12-11T04:24:24.462Z,95374.88
2022-12-11T04:25:26.957Z,95372.22
2022-12-11T04:26:31.825Z,95367.19
2022-12-11T04:27:49.354Z,95366.38
2022-12-11T04:28:54.611Z,95363.09
2022-12-11T04:29:56.871Z,95374.88
2022-12-11T04:31:01.825Z,95369.81
2022-12-11T04:32:04.109Z,95372.38
2022-12-11T04:33:11.602Z,95377.47
2022-12-11T04:34:13.885Z,95368.16
2022-12-11T04:35:19.595Z,95366.53
2022-12-11T04:36:21.908Z,95367.38
2022-12-11T04:37:34.224Z,95364.75
2022-12-11T04:38:49.851Z,95363.09
2022-12-11T04:40:00.679Z,95367.38
2022-12-11T04:41:16.084Z,95358.88
2022-12-11T04:42:33.567Z,95362.25
2022-12-11T04:44:00.992Z,95366.53
2022-12-11T04:45:22.622Z,95364.84
2022-12-11T04:46:52.035Z,95365.72
2022-12-11T04:48:10.803Z,95356.38
2022-12-11T04:49:34.585Z,95359.72
2022-12-11T04:50:44.299Z,95357.19
2022-12-11T04:51:48.651Z,95359.72
2022-12-11T04:53:02.800Z,95357.25
2022-12-11T04:54:08.040Z,95350.47
2022-12-11T04:55:18.663Z,95352.22
2022-12-11T04:56:39.790Z,95359.78
2022-12-11T04:57:56.184Z,95360.63
2022-12-11T04:59:03.785Z,95355.53
2022-12-11T05:00:22.527Z,95352.22
2022-12-11T05:01:39.988Z,95364.88
2022-12-11T05:02:50.444Z,95356.47
2022-12-11T05:04:00.184Z,95359.81
2022-12-11T05:05:17.394Z,95358.16
2022-12-11T05:06:32.635Z,95356.41
2022-12-11T05:07:56.182Z,95359.00
2022-12-11T05:09:17.422Z,95368.31
2022-12-11T05:10:31.898Z,95364.91
2022-12-11T05:11:55.476Z,95361.47
2022-12-11T05:13:02.539Z,95373.25
2022-12-11T05:14:16.426Z,95363.16
2022-12-11T05:15:22.659Z,95362.25
2022-12-11T05:16:36.091Z,95367.34
2022-12-11T05:17:52.793Z,95368.94
2022-12-11T05:20:32.854Z,95381.63
2022-12-11T05:21:59.021Z,95382.44
2022-12-11T05:23:18.186Z,95379.91
2022-12-11T05:24:51.963Z,95380.81
2022-12-11T05:26:06.371Z,95380.78
2022-12-11T05:27:29.506Z,95373.13
2022-12-11T05:28:46.543Z,95379.09
2022-12-11T05:30:06.920Z,95378.19
2022-12-11T05:31:32.534Z,95372.31
2022-12-11T05:32:53.697Z,95376.53
2022-12-11T05:34:11.123Z,95372.34
2022-12-11T05:35:37.220Z,95371.50
2022-12-11T05:36:51.319Z,95369.81
2022-12-11T05:38:22.910Z,95379.13
2022-12-11T05:39:51.637Z,95371.47
2022-12-11T05:41:10.298Z,95377.34
2022-12-11T05:42:28.576Z,95374.00
2022-12-11T05:43:48.128Z,95368.91
2022-12-11T05:45:04.496Z,95367.16
2022-12-11T05:46:13.079Z,95368.00
2022-12-11T05:47:26.950Z,95358.72
2022-12-11T05:48:35.182Z,95354.41
2022-12-11T05:49:47.939Z,95358.72
2022-12-11T05:51:16.280Z,95349.38
2022-12-11T05:52:25.542Z,95347.59
2022-12-11T05:53:43.323Z,95343.38
2022-12-11T05:54:59.422Z,95346.78
2022-12-11T05:56:12.880Z,95335.78
2022-12-11T05:57:32.330Z,95338.31
2022-12-11T05:58:51.998Z,95353.59
2022-12-11T06:00:16.527Z,95352.81
2022-12-11T06:01:41.635Z,95355.38
2022-12-11T06:03:06.606Z,95348.56
2022-12-11T06:04:14.275Z,95340.88
2022-12-11T06:05:36.380Z,95337.50
2022-12-11T06:07:02.876Z,95335.81
2022-12-11T06:08:24.431Z,95329.06
2022-12-11T06:09:52.309Z,95333.38
2022-12-11T06:11:11.894Z,95333.44
2022-12-11T06:12:47.953Z,95333.53
2022-12-11T06:14:13.607Z,95334.41
2022-12-11T06:15:38.801Z,95336.13
2022-12-11T06:16:55.919Z,95332.00
2022-12-11T06:18:12.237Z,95336.19
2022-12-11T06:19:24.090Z,95335.41
2022-12-11T06:22:23.393Z,95342.44
2022-12-11T06:23:41.274Z,95340.84
2022-12-11T06:25:15.542Z,95343.44
2022-12-11T06:26:45.849Z,95343.53
2022-12-11T06:27:51.292Z,95345.16
2022-12-11T06:29:14.572Z,95343.50
2022-12-11T06:30:38.412Z,95345.97
2022-12-11T06:31:55.946Z,95345.97
2022-12-11T06:33:30.485Z,95340.09
2022-12-11T06:34:46.261Z,95338.44
2022-12-11T06:36:24.962Z,95337.63
2022-12-11T06:38:15.463Z,95330.06
2022-12-11T06:39:43.292Z,95336.88
2022-12-11T06:41:16.733Z,95340.22
2022-12-11T06:42:32.853Z,95334.34
2022-12-11T06:43:55.490Z,95325.97
2022-12-11T06:45:00.822Z,95342.84
2022-12-11T06:46:07.846Z,95341.16
2022-12-11T06:47:10.103Z,95344.53
2022-12-11T06:48:15.027Z,95343.69
2022-12-11T06:49:19.865Z,95345.38
2022-12-11T06:50:22.091Z,95342.81
2022-12-11T06:51:27.102Z,95347.81
2022-12-11T06:52:31.942Z,95353.69
2022-12-11T06:53:36.989Z,95351.97
2022-12-11T06:54:39.259Z,95353.59
2022-12-11T06:55:44.750Z,95351.88
2022-12-11T06:56:47.545Z,95353.53
2022-12-11T06:57:52.741Z,95350.94
2022-12-11T06:58:57.279Z,95355.97
2022-12-11T07:00:02.284Z,95354.25
2022-12-11T07:01:05.513Z,95350.03
2022-12-11T07:02:11.038Z,95353.34
2022-12-11T07:03:13.918Z,95353.28
2022-12-11T07:04:18.908Z,95360.00
2022-12-11T07:05:21.212Z,95355.81
2022-12-11T07:06:26.978Z,95354.09
2022-12-11T07:07:31.850Z,95360.00
2022-12-11T07:08:37.021Z,95349.88
2022-12-11T07:09:40.999Z,95350.69
2022-12-11T07:10:45.924Z,95348.94
2022-12-11T07:11:50.565Z,95350.66
2022-12-11T07:12:56.087Z,95347.25
2022-12-11T07:13:59.182Z,95353.19
2022-12-11T07:15:04.453Z,95355.72
2022-12-11T07:16:11.228Z,95348.91
2022-12-11T07:17:14.003Z,95356.53
2022-12-11T07:18:18.883Z,95355.66
2022-12-11T07:19:21.094Z,95363.19
2022-12-11T07:20:26.178Z,95359.81
2022-12-11T07:21:28.423Z,95360.59
2022-12-11T07:22:35.954Z,95358.84
2022-12-11T07:23:38.292Z,95369.00
2022-12-11T07:24:43.172Z,95368.06
2022-12-11T07:25:45.645Z,95365.53
2022-12-11T07:26:51.045Z,95360.47
2022-12-11T07:27:55.858Z,95360.38
2022-12-11T07:29:01.113Z,95359.56
2022-12-11T07:30:04.487Z,95365.50
2022-12-11T07:31:17.877Z,95364.63
2022-12-11T07:32:32.385Z,95363.69
2022-12-11T07:33:58.227Z,95361.06
2022-12-11T07:35:24.608Z,95363.56
2022-12-11T07:36:44.058Z,95366.06
2022-12-11T07:38:01.634Z,95371.25
2022-12-11T07:39:30.286Z,95366.94
2022-12-11T07:40:53.666Z,95369.47
2022-12-11T07:42:28.123Z,95358.53
2022-12-11T07:44:06.000Z,95360.19
2022-12-11T07:45:44.339Z,95365.19
2022-12-11T07:46:57.547Z,95358.41
2022-12-11T07:48:41.408Z,95364.38
2022-12-11T07:50:49.125Z,95360.88
2022-12-11T07:54:50.942Z,95356.47
2022-12-11T07:56:09.922Z,95351.34
2022-12-11T07:57:41.442Z,95362.34
2022-12-11T07:59:00.698Z,95358.03
2022-12-11T08:00:07.569Z,95352.13
2022-12-11T08:01:21.605Z,95347.13
2022-12-11T08:02:37.041Z,95350.59
2022-12-11T08:03:47.637Z,95344.59
2022-12-11T08:05:05.395Z,95348.88
2022-12-11T08:06:23.849Z,95350.56
2022-12-11T08:07:32.681Z,95348.09
2022-12-11T08:08:42.948Z,95345.59
2022-12-11T08:09:57.602Z,95343.09
2022-12-11T08:11:07.312Z,95347.31
2022-12-11T08:12:22.085Z,95344.59
2022-12-11T08:13:31.427Z,95347.09
2022-12-11T08:14:42.161Z,95344.38
2022-12-11T08:16:05.168Z,95345.94
2022-12-11T08:17:19.080Z,95345.22
2022-12-11T08:18:28.315Z,95350.19
2022-12-11T08:20:18.293Z,95351.03
2022-12-11T08:21:22.299Z,95350.94
2022-12-11T08:22:32.820Z,95354.31
2022-12-11T08:23:44.311Z,95354.25
2022-12-11T08:25:09.658Z,95351.72
2022-12-11T08:26:34.860Z,95340.47
2022-12-11T08:27:46.231Z,95347.09
2022-12-11T08:28:51.389Z,95347.88
2022-12-11T08:30:04.426Z,95346.44
2022-12-11T08:31:19.271Z,95347.03
2022-12-11T08:32:32.966Z,95350.31
2022-12-11T08:33:41.690Z,95347.91
2022-12-11T08:35:03.550Z,95350.34
2022-12-11T08:36:06.338Z,95348.06
2022-12-11T08:37:17.325Z,95343.56
2022-12-11T08:38:26.087Z,95342.66
2022-12-11T08:39:38.607Z,95348.44
2022-12-11T08:40:48.957Z,95333.94
2022-12-11T08:42:01.911Z,95338.09
2022-12-11T08:43:07.015Z,95343.00
2022-12-11T08:44:16.846Z,95338.63
2022-12-11T08:45:19.399Z,95341.50
2022-12-11T08:46:26.267Z,95344.09
2022-12-11T08:47:28.602Z,95346.31
2022-12-11T08:48:33.859Z,95348.97
2022-12-11T08:49:38.809Z,95351.41
2022-12-11T08:50:43.816Z,95344.59
2022-12-11T08:51:48.833Z,95356.66
2022-12-11T08:52:53.942Z,95353.44
2022-12-11T08:54:00.373Z,95360.03
2022-12-11T08:55:02.666Z,95352.78
2022-12-11T08:56:34.259Z,95359.47
2022-12-11T08:57:46.116Z,95355.81
2022-12-11T08:59:13.007Z,95355.59
2022-12-11T09:00:37.048Z,95351.78
2022-12-11T09:01:49.697Z,95353.88
2022-12-11T09:03:09.848Z,95358.94
2022-12-11T09:04:32.182Z,95360.56
2022-12-11T09:05:47.759Z,95357.94
2022-12-11T09:07:03.959Z,95361.25
2022-12-11T09:08:11.631Z,95353.81
2022-12-11T09:09:39.567Z,95347.72
2022-12-11T09:11:00.845Z,95347.16
2022-12-11T09:12:25.247Z,95349.53
2022-12-11T09:13:44.012Z,95350.59
2022-12-11T09:15:09.165Z,95348.09
2022-12-11T09:16:18.364Z,95347.25
2022-12-11T09:17:32.634Z,95346.25
2022-12-11T09:18:59.048Z,95342.88
2022-12-11T09:20:23.064Z,95341.06
2022-12-11T09:21:39.787Z,95347.28
2022-12-11T09:22:50.459Z,95345.56
2022-12-11T09:24:15.197Z,95346.50
2022-12-11T09:25:30.263Z,95353.19
2022-12-11T09:26:49.594Z,95344.78
2022-12-11T09:28:21.118Z,95344.00
2022-12-11T09:29:57.998Z,95347.47
2022-12-11T09:31:24.385Z,95345.78
2022-12-11T09:32:37.746Z,95344.06
2022-12-11T09:33:46.403Z,95352.34
2022-12-11T09:35:10.502Z,95352.31
2022-12-11T09:36:17.753Z,95353.19
2022-12-11T09:37:29.774Z,95349.81
2022-12-11T09:38:45.045Z,95355.91
2022-12-11T09:40:07.064Z,95351.44
2022-12-11T09:42:04.846Z,95350.41
2022-12-11T09:43:44.094Z,95340.91
2022-12-11T09:45:17.515Z,95341.09
2022-12-11T09:46:38.591Z,95339.56
2022-12-11T09:47:56.783Z,95343.16
2022-12-11T09:49:12.176Z,95339.66
2022-12-11T09:50:22.287Z,95341.16
2022-12-11T09:51:29.750Z,95334.03
2022-12-11T09:52:38.231Z,95332.22
2022-12-11T09:53:40.611Z,95333.22
2022-12-11T09:54:52.427Z,95336.66
2022-12-11T09:56:05.863Z,95325.44
2022-12-11T09:57:18.491Z,95327.56
2022-12-11T09:58:35.234Z,95326.06
2022-12-11T09:59:48.575Z,95321.88
2022-12-11T10:01:00.151Z,95321.34
2022-12-11T10:02:04.091Z,95316.16
2022-12-11T10:03:27.237Z,95324.13
2022-12-11T10:04:43.345Z,95312.94
2022-12-11T10:05:53.973Z,95321.41
2022-12-11T10:07:08.532Z,95317.50
2022-12-11T10:08:15.274Z,95320.94
2022-12-11T10:09:27.983Z,95317.44
2022-12-11T10:10:43.513Z,95314.66
2022-12-11T10:12:01.912Z,95318.97
2022-12-11T10:13:15.875Z,95319.94
2022-12-11T10:14:33.387Z,95318.41
2022-12-11T10:15:43.732Z,95318.38
2022-12-11T10:16:53.125Z,95328.19
2022-12-11T10:18:04.941Z,95328.09
2022-12-11T10:19:18.132Z,95318.22
2022-12-11T10:20:31.352Z,95326.75
2022-12-11T10:21:42.702Z,95324.16
2022-12-11T10:22:48.727Z,95324.31
2022-12-11T10:23:59.434Z,95319.34
2022-12-11T10:25:11.236Z,95321.28
2022-12-11T10:26:20.641Z,95316.09
2022-12-11T10:27:26.525Z,95320.38
2022-12-11T10:28:32.129Z,95320.16
2022-12-11T10:29:37.009Z,95313.38
2022-12-11T10:30:47.407Z,95316.03
2022-12-11T10:31:56.452Z,95310.00
2022-12-11T10:33:09.596Z,95311.81
2022-12-11T10:34:13.863Z,95313.38
2022-12-11T10:35:30.753Z,95302.38
2022-12-11T10:36:40.046Z,95309.06
2022-12-11T10:37:42.285Z,95302.22
2022-12-11T10:38:49.376Z,95304.59
2022-12-11T10:39:55.221Z,95310.44
2022-12-11T10:41:02.310Z,95300.22
2022-12-11T10:42:18.551Z,95299.72
2022-12-11T10:43:23.767Z,95299.63
2022-12-11T10:44:27.866Z,95293.88
2022-12-11T10:45:35.321Z,95295.75
2022-12-11T10:46:40.181Z,95300.91
2022-12-11T10:47:42.818Z,95303.34
2022-12-11T10:48:53.584Z,95296.38
2022-12-11T10:50:00.759Z,95298.03
2022-12-11T10:51:07.263Z,95301.34
2022-12-11T10:52:23.874Z,95301.16
2022-12-11T10:53:26.900Z,95292.66
2022-12-11T10:54:39.053Z,95298.56
2022-12-11T10:55:45.725Z,95296.06
2022-12-11T10:56:52.593Z,95287.06
2022-12-11T10:57:58.777Z,95297.25
2022-12-11T10:59:05.336Z,95291.22
2022-12-11T11:00:29.626Z,95300.50
2022-12-11T11:01:37.169Z,95293.97
2022-12-11T11:02:43.133Z,95295.31
2022-12-11T11:03:58.198Z,95288.47
2022-12-11T11:05:13.906Z,95288.34
2022-12-11T11:06:19.231Z,95283.06
2022-12-11T11:07:26.474Z,95282.38
2022-12-11T11:08:37.280Z,95280.78
2022-12-11T11:09:42.883Z,95280.59
2022-12-11T11:10:53.535Z,95282.31
2022-12-11T11:12:00.015Z,95272.22
2022-12-11T11:13:07.976Z,95279.00
2022-12-11T11:14:18.437Z,95276.41
2022-12-11T11:15:26.338Z,95276.47
2022-12-11T11:16:31.343Z,95268.78
2022-12-11T11:17:54.500Z,95266.75
2022-12-11T11:19:01.097Z,95271.66
2022-12-11T11:20:16.037Z,95270.13
2022-12-11T11:21:22.134Z,95265.19
2022-12-11T11:22:27.913Z,95272.84
2022-12-11T11:23:33.244Z,95264.66
2022-12-11T11:24:38.704Z,95271.50
2022-12-11T11:25:53.254Z,95255.06
2022-12-11T11:27:13.213Z,95268.72
2022-12-11T11:28:23.593Z,95261.84
2022-12-11T11:29:33.192Z,95258.72
2022-12-11T11:30:41.695Z,95262.75
2022-12-11T11:31:46.726Z,95259.97
2022-12-11T11:32:56.969Z,95251.50
2022-12-11T11:34:04.922Z,95255.81
2022-12-11T11:35:21.737Z,95260.44
2022-12-11T11:36:29.346Z,95261.97
2022-12-11T11:37:33.568Z,95263.50
2022-12-11T11:38:42.516Z,95258.13
2022-12-11T11:39:48.444Z,95253.06
2022-12-11T11:41:04.839Z,95258.00
2022-12-11T11:42:17.621Z,95255.59
2022-12-11T11:43:35.768Z,95251.56
2022-12-11T11:44:46.687Z,95251.75
2022-12-11T11:45:55.348Z,95256.22
2022-12-11T11:47:05.590Z,95255.41
2022-12-11T11:48:28.248Z,95255.53
2022-12-11T11:49:53.864Z,95250.44
2022-12-11T11:51:00.784Z,95247.91
2022-12-11T11:52:15.074Z,95243.47
2022-12-11T11:53:22.917Z,95243.44
2022-12-11T11:54:36.440Z,95238.03
2022-12-11T11:55:48.736Z,95235.19
2022-12-11T11:56:54.464Z,95241.00
2022-12-11T11:58:05.932Z,95232.38
2022-12-11T11:59:21.595Z,95230.38
2022-12-11T12:00:33.266Z,95230.38
2022-12-11T12:01:35.836Z,95233.38
2022-12-11T12:02:40.848Z,95232.75
2022-12-11T12:03:50.298Z,95236.00
2022-12-11T12:04:55.357Z,95235.94
2022-12-11T12:06:14.959Z,95229.75
2022-12-11T12:07:36.018Z,95231.16
2022-12-11T12:08:49.485Z,95235.00
2022-12-11T12:10:02.450Z,95231.41
2022-12-11T12:11:15.363Z,95231.47
2022-12-11T12:12:34.264Z,95227.97
2022-12-11T12:13:50.138Z,95233.97
2022-12-11T12:15:10.140Z,95232.56
2022-12-11T12:16:51.516Z,95237.63
2022-12-11T12:17:56.556Z,95236.13
2022-12-11T12:19:15.755Z,95230.06
2022-12-11T12:20:27.979Z,95233.44
2022-12-11T12:21:39.116Z,95237.63
2022-12-11T12:23:03.538Z,95231.84
2022-12-11T12:24:24.010Z,95230.63
2022-12-11T12:25:34.619Z,95230.63
2022-12-11T12:26:41.653Z,95228.22
2022-12-11T12:27:52.593Z,95234.47
2022-12-11T12:29:11.588Z,95234.41
2022-12-11T12:30:22.070Z,95235.88
2022-12-11T12:31:35.107Z,95231.47
2022-12-11T12:32:52.570Z,95229.69
2022-12-11T12:34:13.546Z,95225.16
2022-12-11T12:35:33.140Z,95232.59
2022-12-11T12:36:48.208Z,95229.63
2022-12-11T12:38:01.677Z,95229.56
2022-12-11T12:39:19.893Z,95237.69
2022-12-11T12:40:33.569Z,95230.56
2022-12-11T12:41:46.988Z,95234.50
2022-12-11T12:43:01.454Z,95231.75
2022-12-11T12:44:20.406Z,95227.41
2022-12-11T12:45:34.986Z,95230.19
2022-12-11T12:46:50.054Z,95228.31
2022-12-11T12:47:55.898Z,95228.47
2022-12-11T12:49:00.028Z,95221.56
2022-12-11T12:50:14.141Z,95220.19
2022-12-11T12:51:17.759Z,95218.22
2022-12-11T12:52:25.070Z,95222.03
2022-12-11T12:53:34.369Z,95206.44
2022-12-11T12:54:37.627Z,95216.75
2022-12-11T12:55:42.947Z,95213.50
2022-12-11T12:56:47.289Z,95207.56
2022-12-11T12:57:55.057Z,95203.13
2022-12-11T12:58:59.846Z,95218.41
2022-12-11T13:00:03.332Z,95215.88
2022-12-11T13:01:11.895Z,95216.00
2022-12-11T13:02:17.181Z,95216.41
2022-12-11T13:03:27.069Z,95221.38
2022-12-11T13:04:58.157Z,95214.81
2022-12-11T13:06:10.648Z,95218.13
2022-12-11T13:07:23.477Z,95225.41
2022-12-11T13:08:29.944Z,95215.28
2022-12-11T13:09:35.197Z,95214.34
2022-12-11T13:10:46.066Z,95219.69
2022-12-11T13:11:53.875Z,95216.53
2022-12-11T13:12:59.445Z,95218.97
2022-12-11T13:14:04.655Z,95220.41
2022-12-11T13:15:27.765Z,95213.38
2022-12-11T13:16:39.678Z,95212.22
2022-12-11T13:17:42.060Z,95215.78
2022-12-11T13:18:48.422Z,95219.03
2022-12-11T13:19:57.765Z,95215.25
2022-12-11T13:21:06.057Z,95223.97
2022-12-11T13:22:22.047Z,95224.28
2022-12-11T13:23:33.119Z,95211.59
2022-12-11T13:25:00.816Z,95215.53
2022-12-11T13:26:12.676Z,95218.00
2022-12-11T13:27:39.755Z,95220.41
2022-12-11T13:29:11.361Z,95216.84
2022-12-11T13:30:31.395Z,95215.13
2022-12-11T13:31:51.603Z,95225.41
2022-12-11T13:33:18.924Z,95223.63
2022-12-11T13:34:29.852Z,95213.47
2022-12-11T13:35:38.738Z,95224.81
2022-12-11T13:36:50.853Z,95229.19
2022-12-11T13:37:58.279Z,95231.91
2022-12-11T13:39:11.295Z,95228.47
2022-12-11T13:40:24.478Z,95232.06
2022-12-11T13:41:31.257Z,95234.72
2022-12-11T13:42:45.622Z,95233.72
2022-12-11T13:43:53.867Z,95235.06
2022-12-11T13:44:59.288Z,95235.91
2022-12-11T13:46:03.717Z,95231.41
2022-12-11T13:47:14.126Z,95234.00
2022-12-11T13:48:26.259Z,95238.09
2022-12-11T13:49:40.350Z,95240.44
2022-12-11T13:50:47.325Z,95233.78
2022-12-11T13:52:00.686Z,95232.06
2022-12-11T13:53:05.230Z,95232.88
2022-12-11T13:54:24.924Z,95234.47
2022-12-11T13:55:32.669Z,95234.66
2022-12-11T13:56:34.934Z,95233.63
2022-12-11T13:57:48.823Z,95239.53
2022-12-11T13:58:54.109Z,95232.63
2022-12-11T14:00:00.563Z,95240.59
2022-12-11T14:01:11.722Z,95238.03
2022-12-11T14:02:21.342Z,95235.28
2022-12-11T14:03:27.141Z,95237.91
2022-12-11T14:04:30.296Z,95229.69
2022-12-11T14:05:36.730Z,95235.47
2022-12-11T14:06:40.332Z,95238.03
2022-12-11T14:07:52.445Z,95241.66
2022-12-11T14:08:58.849Z,95230.94
2022-12-11T14:10:06.702Z,95233.25
2022-12-11T14:11:11.801Z,95233.25